Terminal Aerodrome Forecast
Issued by NWS Paducah, KY

Home | Current Version | Previous Version | Graphics & Text | Print | Product List | Glossary On
Versions: 1 2 3 4 5 6 7 8 9 10 11 12 13 14 15 16 17 18 19
000
FTUS43 KPAH 211700
TAFEVV
TAF
KEVV 211720Z 2118/2218 24010KT P6SM SCT030 BKN100
     FM220100 21004KT P6SM SCT100 BKN250
      TEMPO 2209/2212 6SM BR
     FM221500 24008KT P6SM SCT030=

USA.gov is the U.S. government's official web portal to all federal, state and local government web resources and services.